sensor_id;sensor_type;location;lat;lon;timestamp;pressure;altitude;pressure_sealevel;temperature;humidity
21574;BME280;10948;48.706;9.258;2022-10-16T00:01:40;97673.13;;;16.30;100.00
21574;BME280;10948;48.706;9.258;2022-10-16T00:04:06;97667.16;;;16.08;100.00
21574;BME280;10948;48.706;9.258;2022-10-16T00:06:31;97675.78;;;16.10;100.00
21574;BME280;10948;48.706;9.258;2022-10-16T00:08:57;97667.16;;;16.08;100.00
21574;BME280;10948;48.706;9.258;2022-10-16T00:11:23;97677.06;;;15.95;100.00
21574;BME280;10948;48.706;9.258;2022-10-16T00:13:50;97678.72;;;15.96;100.00
21574;BME280;10948;48.706;9.258;2022-10-16T00:16:16;97681.47;;;15.94;100.00
21574;BME280;10948;48.706;9.258;2022-10-16T00:18:42;97685.28;;;15.70;100.00
21574;BME280;10948;48.706;9.258;2022-10-16T00:21:09;97684.28;;;15.82;100.00
21574;BME280;10948;48.706;9.258;2022-10-16T00:23:35;97691.47;;;15.69;100.00
21574;BME280;10948;48.706;9.258;2022-10-16T00:26:04;97695.28;;;15.65;100.00
21574;BME280;10948;48.706;9.258;2022-10-16T00:28:30;97688.59;;;15.72;100.00
21574;BME280;10948;48.706;9.258;2022-10-16T00:30:55;97703.69;;;15.48;100.00
21574;BME280;10948;48.706;9.258;2022-10-16T00:33:21;97704.63;;;15.58;100.00
21574;BME280;10948;48.706;9.258;2022-10-16T00:35:46;97698.44;;;15.48;100.00
21574;BME280;10948;48.706;9.258;2022-10-16T00:38:11;97704.34;;;15.61;100.00
21574;BME280;10948;48.706;9.258;2022-10-16T00:40:36;97695.56;;;15.62;100.00
21574;BME280;10948;48.706;9.258;2022-10-16T00:43:02;97691.97;;;15.63;100.00
21574;BME280;10948;48.706;9.258;2022-10-16T00:45:27;97686.00;;;15.61;100.00
21574;BME280;10948;48.706;9.258;2022-10-16T00:47:53;97686.53;;;15.44;100.00
21574;BME280;10948;48.706;9.258;2022-10-16T00:50:30;97687.28;;;15.35;100.00
21574;BME280;10948;48.706;9.258;2022-10-16T00:52:55;97690.34;;;15.40;100.00
21574;BME280;10948;48.706;9.258;2022-10-16T00:55:21;97690.50;;;15.27;100.00
21574;BME280;10948;48.706;9.258;2022-10-16T00:57:47;97683.81;;;15.23;100.00
21574;BME280;10948;48.706;9.258;2022-10-16T01:00:15;97672.16;;;15.38;100.00
21574;BME280;10948;48.706;9.258;2022-10-16T01:02:40;97681.56;;;15.19;100.00
21574;BME280;10948;48.706;9.258;2022-10-16T01:05:06;97683.72;;;15.14;100.00
21574;BME280;10948;48.706;9.258;2022-10-16T01:10:31;97701.59;;;15.09;100.00
21574;BME280;10948;48.706;9.258;2022-10-16T01:13:07;97703.38;;;15.08;100.00
21574;BME280;10948;48.706;9.258;2022-10-16T01:18:00;97701.59;;;15.09;100.00
21574;BME280;10948;48.706;9.258;2022-10-16T01:20:28;97702.31;;;15.00;100.00
21574;BME280;10948;48.706;9.258;2022-10-16T01:25:31;97714.47;;;15.01;100.00
21574;BME280;10948;48.706;9.258;2022-10-16T01:28:01;97718.97;;;15.21;100.00
21574;BME280;10948;48.706;9.258;2022-10-16T01:30:30;97710.88;;;15.24;100.00
21574;BME280;10948;48.706;9.258;2022-10-16T01:33:07;97701.19;;;15.24;100.00
21574;BME280;10948;48.706;9.258;2022-10-16T01:35:36;97701.09;;;15.15;100.00
21574;BME280;10948;48.706;9.258;2022-10-16T01:40:44;97714.13;;;14.94;100.00
21574;BME280;10948;48.706;9.258;2022-10-16T01:43:45;97711.13;;;14.99;100.00
21574;BME280;10948;48.706;9.258;2022-10-16T01:46:02;97689.91;;;15.13;100.00
21574;BME280;10948;48.706;9.258;2022-10-16T01:48:27;97687.28;;;15.13;100.00
21574;BME280;10948;48.706;9.258;2022-10-16T01:50:57;97683.25;;;14.87;100.00
21574;BME280;10948;48.706;9.258;2022-10-16T01:53:24;97685.75;;;14.77;100.00
21574;BME280;10948;48.706;9.258;2022-10-16T01:55:50;97681.84;;;14.72;100.00
21574;BME280;10948;48.706;9.258;2022-10-16T01:58:17;97694.00;;;14.84;100.00
21574;BME280;10948;48.706;9.258;2022-10-16T02:00:43;97691.81;;;15.00;100.00
21574;BME280;10948;48.706;9.258;2022-10-16T02:03:10;97687.81;;;14.96;100.00
21574;BME280;10948;48.706;9.258;2022-10-16T02:05:39;97687.31;;;14.91;100.00
21574;BME280;10948;48.706;9.258;2022-10-16T02:08:06;97686.13;;;14.84;100.00
21574;BME280;10948;48.706;9.258;2022-10-16T02:10:32;97684.13;;;14.98;100.00
21574;BME280;10948;48.706;9.258;2022-10-16T02:12:59;97686.34;;;14.81;100.00
21574;BME280;10948;48.706;9.258;2022-10-16T02:15:25;97686.09;;;15.06;100.00
21574;BME280;10948;48.706;9.258;2022-10-16T02:17:50;97679.81;;;14.86;100.00
21574;BME280;10948;48.706;9.258;2022-10-16T02:20:16;97685.66;;;14.90;100.00
21574;BME280;10948;48.706;9.258;2022-10-16T02:22:43;97688.25;;;15.01;100.00
21574;BME280;10948;48.706;9.258;2022-10-16T02:25:15;97704.84;;;14.79;100.00
21574;BME280;10948;48.706;9.258;2022-10-16T02:32:45;97692.19;;;14.95;100.00
21574;BME280;10948;48.706;9.258;2022-10-16T02:35:11;97692.09;;;14.97;100.00
21574;BME280;10948;48.706;9.258;2022-10-16T02:37:37;97683.00;;;15.01;100.00
21574;BME280;10948;48.706;9.258;2022-10-16T02:40:03;97676.47;;;15.06;100.00
21574;BME280;10948;48.706;9.258;2022-10-16T02:42:37;97668.47;;;15.08;100.00
21574;BME280;10948;48.706;9.258;2022-10-16T02:45:04;97677.44;;;14.94;100.00
21574;BME280;10948;48.706;9.258;2022-10-16T02:47:29;97679.94;;;14.96;100.00
21574;BME280;10948;48.706;9.258;2022-10-16T02:49:54;97683.50;;;14.95;100.00
21574;BME280;10948;48.706;9.258;2022-10-16T02:52:20;97688.25;;;15.01;100.00
21574;BME280;10948;48.706;9.258;2022-10-16T02:54:45;97691.13;;;14.87;100.00
21574;BME280;10948;48.706;9.258;2022-10-16T02:57:10;97694.72;;;14.97;100.00
21574;BME280;10948;48.706;9.258;2022-10-16T02:59:36;97697.78;;;15.13;100.00
21574;BME280;10948;48.706;9.258;2022-10-16T03:02:01;97702.56;;;14.97;100.00
21574;BME280;10948;48.706;9.258;2022-10-16T03:04:27;97696.84;;;14.81;100.00
21574;BME280;10948;48.706;9.258;2022-10-16T03:06:52;97695.91;;;14.71;100.00
21574;BME280;10948;48.706;9.258;2022-10-16T03:09:17;97704.72;;;14.70;100.00
21574;BME280;10948;48.706;9.258;2022-10-16T03:11:42;97699.47;;;14.92;100.00
21574;BME280;10948;48.706;9.258;2022-10-16T03:14:07;97699.47;;;15.03;100.00
21574;BME280;10948;48.706;9.258;2022-10-16T03:16:33;97696.84;;;14.92;100.00
21574;BME280;10948;48.706;9.258;2022-10-16T03:18:58;97699.94;;;14.97;100.00
21574;BME280;10948;48.706;9.258;2022-10-16T03:21:23;97702.31;;;15.00;100.00
21574;BME280;10948;48.706;9.258;2022-10-16T03:23:48;97692.78;;;14.99;100.00
21574;BME280;10948;48.706;9.258;2022-10-16T03:26:14;97691.84;;;14.78;100.00
21574;BME280;10948;48.706;9.258;2022-10-16T03:28:39;97693.63;;;14.88;100.00
21574;BME280;10948;48.706;9.258;2022-10-16T03:31:04;97698.16;;;14.75;100.00
21574;BME280;10948;48.706;9.258;2022-10-16T03:33:29;97707.09;;;14.73;100.00
21574;BME280;10948;48.706;9.258;2022-10-16T03:35:54;97704.69;;;14.81;100.00
21574;BME280;10948;48.706;9.258;2022-10-16T03:38:20;97704.25;;;14.76;100.00
21574;BME280;10948;48.706;9.258;2022-10-16T03:40:46;97699.47;;;14.70;100.00
21574;BME280;10948;48.706;9.258;2022-10-16T03:43:11;97707.56;;;14.56;100.00
21574;BME280;10948;48.706;9.258;2022-10-16T03:45:36;97710.53;;;14.84;100.00
21574;BME280;10948;48.706;9.258;2022-10-16T03:48:01;97705.53;;;14.70;100.00
21574;BME280;10948;48.706;9.258;2022-10-16T03:50:28;97707.09;;;14.62;100.00
21574;BME280;10948;48.706;9.258;2022-10-16T03:52:53;97703.75;;;14.60;100.00
21574;BME280;10948;48.706;9.258;2022-10-16T03:55:18;97712.06;;;14.54;100.00
21574;BME280;10948;48.706;9.258;2022-10-16T03:57:43;97714.69;;;14.54;100.00
21574;BME280;10948;48.706;9.258;2022-10-16T04:00:09;97721.59;;;14.44;100.00
21574;BME280;10948;48.706;9.258;2022-10-16T04:02:34;97716.84;;;14.49;100.00
21574;BME280;10948;48.706;9.258;2022-10-16T04:05:00;97719.22;;;14.52;100.00
21574;BME280;10948;48.706;9.258;2022-10-16T04:07:25;97721.47;;;14.45;100.00
21574;BME280;10948;48.706;9.258;2022-10-16T04:09:50;97715.06;;;14.60;100.00
21574;BME280;10948;48.706;9.258;2022-10-16T04:12:17;97710.66;;;14.61;100.00
21574;BME280;10948;48.706;9.258;2022-10-16T04:14:42;97709.00;;;14.49;100.00
21574;BME280;10948;48.706;9.258;2022-10-16T04:17:07;97707.31;;;14.37;100.00
21574;BME280;10948;48.706;9.258;2022-10-16T04:19:32;97719.44;;;14.38;100.00
21574;BME280;10948;48.706;9.258;2022-10-16T04:21:57;97714.94;;;14.73;100.00
21574;BME280;10948;48.706;9.258;2022-10-16T04:24:23;97715.88;;;14.61;100.00
21574;BME280;10948;48.706;9.258;2022-10-16T04:26:48;97720.88;;;14.42;100.00
21574;BME280;10948;48.706;9.258;2022-10-16T04:29:14;97720.25;;;14.38;100.00
21574;BME280;10948;48.706;9.258;2022-10-16T04:31:39;97716.56;;;14.30;100.00
21574;BME280;10948;48.706;9.258;2022-10-16T04:34:04;97718.63;;;14.48;100.00
21574;BME280;10948;48.706;9.258;2022-10-16T04:36:30;97710.63;;;14.39;100.00
21574;BME280;10948;48.706;9.258;2022-10-16T04:38:55;97717.25;;;14.21;100.00
21574;BME280;10948;48.706;9.258;2022-10-16T04:41:21;97720.88;;;14.42;100.00
21574;BME280;10948;48.706;9.258;2022-10-16T04:43:46;97719.72;;;14.57;100.00
21574;BME280;10948;48.706;9.258;2022-10-16T04:46:11;97713.75;;;14.44;100.00
21574;BME280;10948;48.706;9.258;2022-10-16T04:48:36;97719.81;;;14.55;100.00
21574;BME280;10948;48.706;9.258;2022-10-16T04:51:02;97728.47;;;14.34;100.00
21574;BME280;10948;48.706;9.258;2022-10-16T04:53:27;97730.66;;;14.51;100.00
21574;BME280;10948;48.706;9.258;2022-10-16T04:55:52;97728.06;;;14.62;100.00
21574;BME280;10948;48.706;9.258;2022-10-16T04:58:18;97725.91;;;14.67;100.00
21574;BME280;10948;48.706;9.258;2022-10-16T05:00:44;97734.25;;;14.72;100.00
21574;BME280;10948;48.706;9.258;2022-10-16T05:03:09;97726.38;;;14.50;100.00
21574;BME280;10948;48.706;9.258;2022-10-16T05:05:35;97730.88;;;14.59;100.00
21574;BME280;10948;48.706;9.258;2022-10-16T05:08:00;97745.44;;;14.63;100.00
21574;BME280;10948;48.706;9.258;2022-10-16T05:10:26;97746.84;;;14.67;100.00
21574;BME280;10948;48.706;9.258;2022-10-16T05:12:51;97744.81;;;14.48;100.00
21574;BME280;10948;48.706;9.258;2022-10-16T05:15:16;97756.69;;;14.41;100.00
21574;BME280;10948;48.706;9.258;2022-10-16T05:17:41;97747.75;;;14.33;100.00
21574;BME280;10948;48.706;9.258;2022-10-16T05:20:07;97752.78;;;14.36;100.00
21574;BME280;10948;48.706;9.258;2022-10-16T05:22:32;97751.81;;;14.37;100.00
21574;BME280;10948;48.706;9.258;2022-10-16T05:24:57;97744.38;;;14.20;100.00
21574;BME280;10948;48.706;9.258;2022-10-16T05:27:22;97747.13;;;14.29;100.00
21574;BME280;10948;48.706;9.258;2022-10-16T05:29:48;97742.97;;;14.27;100.00
21574;BME280;10948;48.706;9.258;2022-10-16T05:32:14;97743.72;;;14.40;100.00
21574;BME280;10948;48.706;9.258;2022-10-16T05:34:39;97738.22;;;14.32;100.00
21574;BME280;10948;48.706;9.258;2022-10-16T05:37:04;97748.94;;;14.29;100.00
21574;BME280;10948;48.706;9.258;2022-10-16T05:39:30;97750.09;;;14.25;100.00
21574;BME280;10948;48.706;9.258;2022-10-16T05:41:55;97755.78;;;14.19;100.00
21574;BME280;10948;48.706;9.258;2022-10-16T05:44:20;97755.59;;;14.22;100.00
21574;BME280;10948;48.706;9.258;2022-10-16T05:46:46;97763.13;;;14.14;100.00
21574;BME280;10948;48.706;9.258;2022-10-16T05:49:11;97760.03;;;14.09;100.00
21574;BME280;10948;48.706;9.258;2022-10-16T05:51:36;97758.13;;;14.11;100.00
21574;BME280;10948;48.706;9.258;2022-10-16T05:54:01;97763.13;;;14.14;100.00
21574;BME280;10948;48.706;9.258;2022-10-16T05:56:27;97765.31;;;14.20;100.00
21574;BME280;10948;48.706;9.258;2022-10-16T05:58:52;97765.13;;;14.34;100.00
21574;BME280;10948;48.706;9.258;2022-10-16T06:01:18;97764.66;;;14.29;100.00
21574;BME280;10948;48.706;9.258;2022-10-16T06:03:44;97767.72;;;14.34;100.00
21574;BME280;10948;48.706;9.258;2022-10-16T06:06:10;97762.63;;;14.32;100.00
21574;BME280;10948;48.706;9.258;2022-10-16T06:08:35;97768.53;;;14.58;100.00
21574;BME280;10948;48.706;9.258;2022-10-16T06:11:04;97764.97;;;14.70;100.00
21574;BME280;10948;48.706;9.258;2022-10-16T06:13:30;97773.03;;;14.67;100.00
21574;BME280;10948;48.706;9.258;2022-10-16T06:15:56;97782.69;;;14.55;100.00
21574;BME280;10948;48.706;9.258;2022-10-16T06:18:22;97788.13;;;14.41;100.00
21574;BME280;10948;48.706;9.258;2022-10-16T06:20:47;97771.41;;;14.77;100.00
21574;BME280;10948;48.706;9.258;2022-10-16T06:23:12;97771.75;;;14.72;100.00
21574;BME280;10948;48.706;9.258;2022-10-16T06:25:37;97784.63;;;14.97;100.00
21574;BME280;10948;48.706;9.258;2022-10-16T06:28:03;97783.31;;;15.14;100.00
21574;BME280;10948;48.706;9.258;2022-10-16T06:30:28;97789.03;;;15.08;100.00
21574;BME280;10948;48.706;9.258;2022-10-16T06:32:53;97792.75;;;14.94;100.00
21574;BME280;10948;48.706;9.258;2022-10-16T06:35:18;97790.13;;;15.05;100.00
21574;BME280;10948;48.706;9.258;2022-10-16T06:37:44;97798.22;;;15.24;100.00
21574;BME280;10948;48.706;9.258;2022-10-16T06:40:09;97785.69;;;15.61;100.00
21574;BME280;10948;48.706;9.258;2022-10-16T06:42:34;97784.44;;;15.87;100.00
21574;BME280;10948;48.706;9.258;2022-10-16T06:45:00;97781.69;;;16.20;100.00
21574;BME280;10948;48.706;9.258;2022-10-16T06:47:26;97788.22;;;16.05;100.00
21574;BME280;10948;48.706;9.258;2022-10-16T06:49:52;97794.88;;;17.61;100.00
21574;BME280;10948;48.706;9.258;2022-10-16T06:52:17;97801.09;;;19.12;100.00
21574;BME280;10948;48.706;9.258;2022-10-16T06:54:42;97813.91;;;20.60;100.00
21574;BME280;10948;48.706;9.258;2022-10-16T06:57:07;97806.44;;;20.55;98.77
21574;BME280;10948;48.706;9.258;2022-10-16T06:59:33;97807.56;;;18.05;100.00
21574;BME280;10948;48.706;9.258;2022-10-16T07:01:58;97816.19;;;17.28;100.00
21574;BME280;10948;48.706;9.258;2022-10-16T07:04:23;97810.88;;;16.69;100.00
21574;BME280;10948;48.706;9.258;2022-10-16T07:06:49;97814.25;;;16.60;100.00
21574;BME280;10948;48.706;9.258;2022-10-16T07:09:14;97822.72;;;16.32;100.00
21574;BME280;10948;48.706;9.258;2022-10-16T07:11:39;97824.16;;;16.36;100.00
21574;BME280;10948;48.706;9.258;2022-10-16T07:14:05;97829.16;;;16.28;100.00
21574;BME280;10948;48.706;9.258;2022-10-16T07:16:34;97831.06;;;16.37;100.00
21574;BME280;10948;48.706;9.258;2022-10-16T07:19:00;97834.63;;;16.47;100.00
21574;BME280;10948;48.706;9.258;2022-10-16T07:21:31;97844.25;;;16.57;100.00
21574;BME280;10948;48.706;9.258;2022-10-16T07:24:00;97845.84;;;16.49;100.00
21574;BME280;10948;48.706;9.258;2022-10-16T07:26:26;97849.84;;;16.64;100.00
21574;BME280;10948;48.706;9.258;2022-10-16T07:28:52;97856.56;;;16.57;100.00
21574;BME280;10948;48.706;9.258;2022-10-16T07:31:18;97866.88;;;16.49;100.00
21574;BME280;10948;48.706;9.258;2022-10-16T07:33:44;97867.31;;;16.54;100.00
21574;BME280;10948;48.706;9.258;2022-10-16T07:36:11;97867.59;;;16.40;100.00
21574;BME280;10948;48.706;9.258;2022-10-16T07:38:36;97876.88;;;16.55;100.00
21574;BME280;10948;48.706;9.258;2022-10-16T07:41:04;97876.41;;;16.50;100.00
21574;BME280;10948;48.706;9.258;2022-10-16T07:43:30;97888.56;;;16.62;100.00
21574;BME280;10948;48.706;9.258;2022-10-16T07:45:56;97882.38;;;16.52;100.00
21574;BME280;10948;48.706;9.258;2022-10-16T07:48:22;97885.03;;;16.41;100.00
21574;BME280;10948;48.706;9.258;2022-10-16T07:50:47;97887.88;;;16.49;100.00
21574;BME280;10948;48.706;9.258;2022-10-16T07:53:13;97886.19;;;16.48;100.00
21574;BME280;10948;48.706;9.258;2022-10-16T07:55:38;97877.13;;;16.52;100.00
21574;BME280;10948;48.706;9.258;2022-10-16T07:58:04;97887.63;;;16.52;100.00
21574;BME280;10948;48.706;9.258;2022-10-16T08:00:29;97893.63;;;16.74;100.00
21574;BME280;10948;48.706;9.258;2022-10-16T08:02:54;97904.97;;;16.75;100.00
21574;BME280;10948;48.706;9.258;2022-10-16T08:05:21;97896.44;;;16.82;100.00
21574;BME280;10948;48.706;9.258;2022-10-16T08:07:49;97899.03;;;16.93;100.00
21574;BME280;10948;48.706;9.258;2022-10-16T08:10:18;97902.88;;;16.89;100.00
21574;BME280;10948;48.706;9.258;2022-10-16T08:12:43;97900.97;;;16.91;100.00
21574;BME280;10948;48.706;9.258;2022-10-16T08:15:09;97900.94;;;17.11;100.00
21574;BME280;10948;48.706;9.258;2022-10-16T08:17:34;97904.50;;;17.21;100.00
21574;BME280;10948;48.706;9.258;2022-10-16T08:19:59;97904.72;;;17.18;100.00
21574;BME280;10948;48.706;9.258;2022-10-16T08:22:25;97901.75;;;17.32;100.00
21574;BME280;10948;48.706;9.258;2022-10-16T08:24:51;97895.94;;;17.49;100.00
21574;BME280;10948;48.706;9.258;2022-10-16T08:27:16;97897.41;;;17.72;100.00
21574;BME280;10948;48.706;9.258;2022-10-16T08:29:42;97895.75;;;18.11;100.00
21574;BME280;10948;48.706;9.258;2022-10-16T08:32:07;97902.78;;;18.40;100.00
21574;BME280;10948;48.706;9.258;2022-10-16T08:34:32;97906.59;;;19.50;100.00
21574;BME280;10948;48.706;9.258;2022-10-16T08:36:57;97895.78;;;19.90;100.00
21574;BME280;10948;48.706;9.258;2022-10-16T08:39:23;97900.38;;;19.78;100.00
21574;BME280;10948;48.706;9.258;2022-10-16T08:49:29;97912.78;;;18.84;100.00
21574;BME280;10948;48.706;9.258;2022-10-16T08:51:55;97918.19;;;18.73;100.00
21574;BME280;10948;48.706;9.258;2022-10-16T08:56:46;97917.88;;;18.38;100.00
21574;BME280;10948;48.706;9.258;2022-10-16T08:59:11;97918.69;;;18.29;100.00
21574;BME280;10948;48.706;9.258;2022-10-16T09:01:40;97927.00;;;18.25;100.00
21574;BME280;10948;48.706;9.258;2022-10-16T09:06:52;97939.53;;;18.51;100.00
21574;BME280;10948;48.706;9.258;2022-10-16T09:16:40;97939.84;;;19.89;100.00
21574;BME280;10948;48.706;9.258;2022-10-16T09:19:28;97935.28;;;20.18;100.00
21574;BME280;10948;48.706;9.258;2022-10-16T09:21:56;97939.16;;;20.68;100.00
21574;BME280;10948;48.706;9.258;2022-10-16T09:24:22;97932.88;;;20.69;100.00
21574;BME280;10948;48.706;9.258;2022-10-16T09:26:49;97936.25;;;20.44;100.00
21574;BME280;10948;48.706;9.258;2022-10-16T09:29:15;97944.88;;;20.46;100.00
21574;BME280;10948;48.706;9.258;2022-10-16T09:31:41;97945.84;;;20.63;100.00
21574;BME280;10948;48.706;9.258;2022-10-16T09:34:09;97945.84;;;21.50;100.00
21574;BME280;10948;48.706;9.258;2022-10-16T09:36:40;97948.16;;;22.87;97.35
21574;BME280;10948;48.706;9.258;2022-10-16T09:39:07;97956.34;;;21.60;94.96
21574;BME280;10948;48.706;9.258;2022-10-16T09:41:34;97951.53;;;22.06;97.18
21574;BME280;10948;48.706;9.258;2022-10-16T09:44:00;97956.66;;;22.41;94.58
21574;BME280;10948;48.706;9.258;2022-10-16T09:46:31;97950.50;;;23.86;82.12
21574;BME280;10948;48.706;9.258;2022-10-16T09:49:49;97944.91;;;23.33;86.63
21574;BME280;10948;48.706;9.258;2022-10-16T09:51:42;97945.53;;;22.95;85.67
21574;BME280;10948;48.706;9.258;2022-10-16T09:56:33;97955.16;;;23.76;78.04
21574;BME280;10948;48.706;9.258;2022-10-16T09:59:02;97947.22;;;22.47;84.62
21574;BME280;10948;48.706;9.258;2022-10-16T10:01:47;97950.47;;;22.66;86.72
21574;BME280;10948;48.706;9.258;2022-10-16T10:04:13;97956.28;;;25.35;73.51
21574;BME280;10948;48.706;9.258;2022-10-16T10:06:47;97956.00;;;26.83;64.75
21574;BME280;10948;48.706;9.258;2022-10-16T10:11:54;97947.41;;;26.38;66.01
21574;BME280;10948;48.706;9.258;2022-10-16T10:19:36;97962.34;;;23.28;72.63
21574;BME280;10948;48.706;9.258;2022-10-16T10:22:11;97956.31;;;23.98;75.69
21574;BME280;10948;48.706;9.258;2022-10-16T10:24:38;97969.19;;;24.24;72.57
21574;BME280;10948;48.706;9.258;2022-10-16T10:27:08;97958.38;;;24.18;71.35
21574;BME280;10948;48.706;9.258;2022-10-16T10:32:43;97957.16;;;24.75;71.12
21574;BME280;10948;48.706;9.258;2022-10-16T10:42:47;97951.31;;;28.65;54.21
21574;BME280;10948;48.706;9.258;2022-10-16T10:45:16;97951.06;;;29.20;51.01
21574;BME280;10948;48.706;9.258;2022-10-16T10:56:04;97954.22;;;29.95;47.70
21574;BME280;10948;48.706;9.258;2022-10-16T11:06:05;97940.75;;;30.21;49.00
21574;BME280;10948;48.706;9.258;2022-10-16T11:08:33;97945.56;;;30.63;48.69
21574;BME280;10948;48.706;9.258;2022-10-16T11:11:01;97942.66;;;31.15;48.48
21574;BME280;10948;48.706;9.258;2022-10-16T11:13:35;97943.47;;;30.14;48.54
21574;BME280;10948;48.706;9.258;2022-10-16T11:16:21;97948.03;;;29.62;49.39
21574;BME280;10948;48.706;9.258;2022-10-16T11:21:35;97939.16;;;29.55;51.09
21574;BME280;10948;48.706;9.258;2022-10-16T11:24:06;97938.25;;;30.39;48.25
21574;BME280;10948;48.706;9.258;2022-10-16T11:26:38;97938.31;;;29.48;48.76
21574;BME280;10948;48.706;9.258;2022-10-16T11:29:07;97933.78;;;31.08;47.89
21574;BME280;10948;48.706;9.258;2022-10-16T11:34:10;97936.88;;;27.91;50.56
21574;BME280;10948;48.706;9.258;2022-10-16T11:39:11;97936.63;;;31.50;44.63
21574;BME280;10948;48.706;9.258;2022-10-16T11:41:47;97931.91;;;31.46;44.92
21574;BME280;10948;48.706;9.258;2022-10-16T11:49:32;97922.88;;;30.59;47.79
21574;BME280;10948;48.706;9.258;2022-10-16T11:54:48;97928.72;;;31.31;45.50
21574;BME280;10948;48.706;9.258;2022-10-16T11:57:17;97924.53;;;31.35;47.10
21574;BME280;10948;48.706;9.258;2022-10-16T12:00:01;97923.66;;;31.72;44.82
21574;BME280;10948;48.706;9.258;2022-10-16T12:05:45;97923.75;;;31.28;44.58
21574;BME280;10948;48.706;9.258;2022-10-16T12:08:09;97916.34;;;30.35;46.23
21574;BME280;10948;48.706;9.258;2022-10-16T12:10:32;97918.97;;;30.99;45.66
21574;BME280;10948;48.706;9.258;2022-10-16T12:13:02;97915.06;;;31.81;45.45
21574;BME280;10948;48.706;9.258;2022-10-16T12:15:29;97912.13;;;31.34;44.74
21574;BME280;10948;48.706;9.258;2022-10-16T12:17:55;97908.94;;;31.19;45.23
21574;BME280;10948;48.706;9.258;2022-10-16T12:20:28;97918.06;;;28.53;50.22
21574;BME280;10948;48.706;9.258;2022-10-16T12:22:59;97910.84;;;27.79;52.15
21574;BME280;10948;48.706;9.258;2022-10-16T12:25:26;97913.38;;;27.87;52.26
21574;BME280;10948;48.706;9.258;2022-10-16T12:30:22;97918.25;;;28.45;51.04
21574;BME280;10948;48.706;9.258;2022-10-16T12:35:46;97914.75;;;30.21;46.57
21574;BME280;10948;48.706;9.258;2022-10-16T12:38:16;97926.75;;;29.73;47.38
21574;BME280;10948;48.706;9.258;2022-10-16T12:40:43;97923.25;;;29.34;46.72
21574;BME280;10948;48.706;9.258;2022-10-16T12:43:13;97931.75;;;29.63;47.02
21574;BME280;10948;48.706;9.258;2022-10-16T12:45:58;97925.50;;;30.02;47.12
21574;BME280;10948;48.706;9.258;2022-10-16T12:48:23;97931.69;;;29.96;47.22
21574;BME280;10948;48.706;9.258;2022-10-16T12:50:48;97920.47;;;30.38;46.77
21574;BME280;10948;48.706;9.258;2022-10-16T12:53:19;97935.44;;;29.56;46.98
21574;BME280;10948;48.706;9.258;2022-10-16T12:55:49;97929.13;;;27.75;51.52
21574;BME280;10948;48.706;9.258;2022-10-16T13:10:38;97944.28;;;27.20;55.27
21574;BME280;10948;48.706;9.258;2022-10-16T13:23:26;97938.72;;;27.70;53.24
21574;BME280;10948;48.706;9.258;2022-10-16T13:28:26;97938.06;;;27.82;50.49
21574;BME280;10948;48.706;9.258;2022-10-16T13:30:54;97943.31;;;27.76;52.44
21574;BME280;10948;48.706;9.258;2022-10-16T13:33:33;97939.50;;;27.85;51.14
21574;BME280;10948;48.706;9.258;2022-10-16T13:35:59;97940.69;;;27.13;54.50
21574;BME280;10948;48.706;9.258;2022-10-16T13:38:29;97950.09;;;27.09;54.96
21574;BME280;10948;48.706;9.258;2022-10-16T13:40:57;97947.06;;;26.91;54.50
21574;BME280;10948;48.706;9.258;2022-10-16T13:43:37;97947.06;;;26.91;55.58
21574;BME280;10948;48.706;9.258;2022-10-16T13:46:04;97943.66;;;27.18;56.22
21574;BME280;10948;48.706;9.258;2022-10-16T13:48:31;97938.97;;;26.70;54.76
21574;BME280;10948;48.706;9.258;2022-10-16T13:51:04;97941.16;;;26.16;55.57
21574;BME280;10948;48.706;9.258;2022-10-16T13:53:33;97934.00;;;26.02;56.66
21574;BME280;10948;48.706;9.258;2022-10-16T13:56:02;97941.44;;;26.07;55.46
21574;BME280;10948;48.706;9.258;2022-10-16T13:58:27;97941.97;;;26.17;55.76
21574;BME280;10948;48.706;9.258;2022-10-16T14:00:53;97940.28;;;25.87;59.05
21574;BME280;10948;48.706;9.258;2022-10-16T14:03:19;97929.63;;;25.87;57.78
21574;BME280;10948;48.706;9.258;2022-10-16T14:06:06;97940.53;;;25.63;57.99
21574;BME280;10948;48.706;9.258;2022-10-16T14:08:30;97938.63;;;25.86;60.42
21574;BME280;10948;48.706;9.258;2022-10-16T14:10:57;97944.13;;;25.70;59.06
21574;BME280;10948;48.706;9.258;2022-10-16T14:13:26;97941.19;;;25.65;60.26
21574;BME280;10948;48.706;9.258;2022-10-16T14:15:53;97945.09;;;25.54;61.23
21574;BME280;10948;48.706;9.258;2022-10-16T14:18:20;97941.81;;;25.30;60.79
21574;BME280;10948;48.706;9.258;2022-10-16T14:20:46;97943.84;;;25.28;62.01
21574;BME280;10948;48.706;9.258;2022-10-16T14:25:47;97952.69;;;25.28;64.51
21574;BME280;10948;48.706;9.258;2022-10-16T14:28:16;97951.97;;;25.04;64.09
21574;BME280;10948;48.706;9.258;2022-10-16T14:30:50;97951.56;;;25.15;63.61
21574;BME280;10948;48.706;9.258;2022-10-16T14:33:23;97950.94;;;25.13;63.46
21574;BME280;10948;48.706;9.258;2022-10-16T14:35:59;97953.06;;;25.40;63.33
21574;BME280;10948;48.706;9.258;2022-10-16T14:38:25;97952.00;;;25.26;63.82
21574;BME280;10948;48.706;9.258;2022-10-16T14:40:50;97947.84;;;25.24;64.81
21574;BME280;10948;48.706;9.258;2022-10-16T14:43:22;97949.50;;;25.02;66.42
21574;BME280;10948;48.706;9.258;2022-10-16T14:45:55;97961.81;;;25.03;66.89
21574;BME280;10948;48.706;9.258;2022-10-16T14:48:21;97956.25;;;24.90;69.03
21574;BME280;10948;48.706;9.258;2022-10-16T14:50:46;97954.44;;;24.83;67.60
21574;BME280;10948;48.706;9.258;2022-10-16T14:53:11;97950.16;;;25.04;64.70
21574;BME280;10948;48.706;9.258;2022-10-16T14:55:37;97951.41;;;24.94;62.91
21574;BME280;10948;48.706;9.258;2022-10-16T14:58:03;97950.28;;;24.88;62.81